createdAt,value
2023-05-03T00:01:19.023Z,64.75
2023-05-03T00:03:45.993Z,65.02
2023-05-03T00:06:16.283Z,66.01
2023-05-03T00:08:42.979Z,66.04
2023-05-03T00:11:09.903Z,66.22
2023-05-03T00:13:36.751Z,66.59
2023-05-03T00:16:03.622Z,67.32
2023-05-03T00:18:30.706Z,67.36
2023-05-03T00:20:59.455Z,67.50
2023-05-03T00:23:26.767Z,67.84
2023-05-03T00:25:57.437Z,67.62
2023-05-03T00:28:24.963Z,67.76
2023-05-03T00:30:52.586Z,68.04
2023-05-03T00:33:19.213Z,67.20
2023-05-03T00:35:45.797Z,65.79
2023-05-03T00:38:14.328Z,65.29
2023-05-03T00:40:41.044Z,63.60
2023-05-03T00:43:07.659Z,63.00
2023-05-03T00:45:34.671Z,62.52
2023-05-03T00:48:01.617Z,61.56
2023-05-03T00:50:28.567Z,61.95
2023-05-03T00:52:55.384Z,61.38
2023-05-03T00:55:22.208Z,61.65
2023-05-03T00:57:48.652Z,62.48
2023-05-03T01:00:15.593Z,63.09
2023-05-03T01:02:42.237Z,64.53
2023-05-03T01:05:09.095Z,66.20
2023-05-03T01:07:41.331Z,66.53
2023-05-03T01:10:21.629Z,67.57
2023-05-03T01:13:23.402Z,68.57
2023-05-03T01:16:11.866Z,68.61
2023-05-03T01:18:40.234Z,69.21
2023-05-03T01:21:09.185Z,69.58
2023-05-03T01:23:57.311Z,69.18
2023-05-03T01:26:26.029Z,68.30
2023-05-03T01:28:52.584Z,68.34
2023-05-03T01:31:26.711Z,68.52
2023-05-03T01:34:08.110Z,68.52
2023-05-03T01:36:35.492Z,67.96
2023-05-03T01:39:14.261Z,67.41
2023-05-03T01:41:42.069Z,67.13
2023-05-03T01:44:09.855Z,67.04
2023-05-03T01:46:42.755Z,68.11
2023-05-03T01:49:09.284Z,67.94
2023-05-03T01:51:35.853Z,67.93
2023-05-03T01:54:02.829Z,68.99
2023-05-03T01:56:30.698Z,68.78
2023-05-03T01:58:57.246Z,68.03
2023-05-03T02:01:23.745Z,68.00
2023-05-03T02:03:50.267Z,68.91
2023-05-03T02:06:16.832Z,69.07
2023-05-03T02:08:43.281Z,69.30
2023-05-03T02:11:09.701Z,69.43
2023-05-03T02:13:37.887Z,69.27
2023-05-03T02:16:04.750Z,69.20
2023-05-03T02:18:31.500Z,69.51
2023-05-03T02:20:58.020Z,69.87
2023-05-03T02:23:24.547Z,69.85
2023-05-03T02:25:51.136Z,69.84
2023-05-03T02:28:17.582Z,69.57
2023-05-03T02:30:44.239Z,70.27
2023-05-03T02:33:10.929Z,70.22
2023-05-03T02:35:37.445Z,69.58
2023-05-03T02:38:04.231Z,69.59
2023-05-03T02:40:30.703Z,70.02
2023-05-03T02:42:57.194Z,69.92
2023-05-03T02:45:24.315Z,69.95
2023-05-03T02:47:50.990Z,70.23
2023-05-03T02:50:17.525Z,70.02
2023-05-03T02:52:44.231Z,69.81
2023-05-03T02:55:10.672Z,69.44
2023-05-03T02:57:37.116Z,69.06
2023-05-03T03:00:05.870Z,68.25
2023-05-03T03:02:33.112Z,68.44
2023-05-03T03:04:59.618Z,68.50
2023-05-03T03:07:26.274Z,68.69
2023-05-03T03:09:52.735Z,68.57
2023-05-03T03:12:19.457Z,68.40
2023-05-03T03:14:45.994Z,68.17
2023-05-03T03:17:13.210Z,68.04
2023-05-03T03:19:39.823Z,68.53
2023-05-03T03:22:06.724Z,68.93
2023-05-03T03:24:33.447Z,69.72
2023-05-03T03:27:00.033Z,69.64
2023-05-03T03:29:27.960Z,70.13
2023-05-03T03:31:54.747Z,69.05
2023-05-03T03:34:21.328Z,69.02
2023-05-03T03:36:48.610Z,69.44
2023-05-03T03:39:15.329Z,69.46
2023-05-03T03:41:42.457Z,69.41
2023-05-03T03:44:09.114Z,69.48
2023-05-03T03:46:35.844Z,69.39
2023-05-03T03:49:02.522Z,69.14
2023-05-03T03:51:29.212Z,68.80
2023-05-03T03:53:55.853Z,68.13
2023-05-03T03:56:23.785Z,68.73
2023-05-03T03:58:50.434Z,68.39
2023-05-03T04:01:17.013Z,68.24
2023-05-03T04:03:47.382Z,68.93
2023-05-03T04:06:14.140Z,67.89
2023-05-03T04:08:40.978Z,67.09
2023-05-03T04:11:12.533Z,66.49
2023-05-03T04:13:39.369Z,66.76
2023-05-03T04:16:07.109Z,67.33
2023-05-03T04:18:33.655Z,67.08
2023-05-03T04:21:00.175Z,66.15
2023-05-03T04:23:26.831Z,66.35
2023-05-03T04:25:53.367Z,65.25
2023-05-03T04:28:20.561Z,64.49
2023-05-03T04:30:47.354Z,63.84
2023-05-03T04:33:14.032Z,63.43
2023-05-03T04:35:41.448Z,62.75
2023-05-03T04:38:09.008Z,62.40
2023-05-03T04:40:35.898Z,62.08
2023-05-03T04:43:02.429Z,60.88
2023-05-03T04:45:28.994Z,62.00
2023-05-03T04:47:55.726Z,61.63
2023-05-03T04:50:22.186Z,61.17
2023-05-03T04:52:48.697Z,61.14
2023-05-03T04:55:15.390Z,62.16
2023-05-03T04:57:42.441Z,62.03
2023-05-03T05:00:12.658Z,60.90
2023-05-03T05:02:39.260Z,61.89
2023-05-03T05:05:06.292Z,61.83
2023-05-03T05:07:32.871Z,62.18
2023-05-03T05:09:59.396Z,61.73
2023-05-03T05:12:26.148Z,61.87
2023-05-03T05:14:52.668Z,61.58
2023-05-03T05:17:19.354Z,60.24
2023-05-03T05:19:45.890Z,58.78
2023-05-03T05:22:12.447Z,58.07
2023-05-03T05:24:39.021Z,57.38
2023-05-03T05:27:06.685Z,57.01
2023-05-03T05:29:33.398Z,57.57
2023-05-03T05:32:01.862Z,57.70
2023-05-03T05:34:29.816Z,57.91
2023-05-03T05:36:58.849Z,58.06
2023-05-03T05:39:25.952Z,56.97
2023-05-03T05:41:52.498Z,56.00
2023-05-03T05:44:18.956Z,55.31
2023-05-03T05:46:46.539Z,54.21
2023-05-03T05:49:13.338Z,53.40
2023-05-03T05:51:40.060Z,52.43
2023-05-03T05:54:07.752Z,50.78
2023-05-03T05:56:34.398Z,49.88
2023-05-03T05:59:01.093Z,47.39
2023-05-03T06:01:27.791Z,43.59
2023-05-03T06:03:55.519Z,41.35
2023-05-03T06:06:22.159Z,39.08
2023-05-03T06:08:51.374Z,37.10
2023-05-03T06:11:18.237Z,34.67
2023-05-03T06:13:44.868Z,33.46
2023-05-03T06:16:11.867Z,32.32
2023-05-03T06:18:39.081Z,31.61
2023-05-03T06:21:05.830Z,30.32
2023-05-03T06:23:33.433Z,29.43
2023-05-03T06:25:59.965Z,28.36
2023-05-03T06:28:26.452Z,28.28
2023-05-03T06:30:53.010Z,27.59
2023-05-03T06:33:19.596Z,28.78
2023-05-03T06:35:47.213Z,27.69
2023-05-03T06:38:13.799Z,26.63
2023-05-03T06:40:41.639Z,27.22
2023-05-03T06:43:08.186Z,25.66
2023-05-03T06:45:34.725Z,23.63
2023-05-03T06:48:01.440Z,25.94
2023-05-03T06:50:28.116Z,27.53
2023-05-03T06:52:54.737Z,28.95
2023-05-03T06:55:21.402Z,28.45
2023-05-03T06:57:48.389Z,27.75
2023-05-03T07:00:15.964Z,25.30
2023-05-03T07:02:42.899Z,23.84
2023-05-03T07:05:09.928Z,27.81
2023-05-03T07:07:36.738Z,25.77
2023-05-03T07:10:03.940Z,26.64
2023-05-03T07:12:30.832Z,26.12
2023-05-03T07:14:57.830Z,25.03
2023-05-03T07:17:24.862Z,27.80
2023-05-03T07:19:51.794Z,27.53
2023-05-03T07:22:20.700Z,27.41
2023-05-03T07:24:47.409Z,26.24
2023-05-03T07:27:15.500Z,26.05
2023-05-03T07:29:42.041Z,29.18
2023-05-03T07:32:09.031Z,28.64
2023-05-03T07:34:35.559Z,24.57
2023-05-03T07:37:02.038Z,26.80
2023-05-03T07:39:28.595Z,31.59
2023-05-03T07:41:55.294Z,35.57
2023-05-03T07:44:22.456Z,35.04
2023-05-03T07:46:49.167Z,36.72
2023-05-03T07:49:16.203Z,37.14
2023-05-03T07:51:42.870Z,36.59
2023-05-03T07:54:09.497Z,36.28
2023-05-03T07:56:36.412Z,37.04
2023-05-03T07:59:09.086Z,38.15
2023-05-03T08:01:37.196Z,37.72
2023-05-03T08:04:04.685Z,38.65
2023-05-03T08:06:31.872Z,38.26
2023-05-03T08:08:58.804Z,38.71
2023-05-03T08:11:27.235Z,37.72
2023-05-03T08:13:53.753Z,37.92
2023-05-03T08:16:20.514Z,40.41
2023-05-03T08:18:47.328Z,40.26
2023-05-03T08:21:15.064Z,40.07
2023-05-03T08:23:42.464Z,40.51
2023-05-03T08:26:10.030Z,39.97
2023-05-03T08:28:36.590Z,38.78
2023-05-03T08:31:06.768Z,37.33
2023-05-03T08:33:33.490Z,35.94
2023-05-03T08:36:00.179Z,34.98
2023-05-03T08:38:27.302Z,36.88
2023-05-03T08:40:55.730Z,38.19
2023-05-03T08:43:24.063Z,38.21
2023-05-03T08:45:51.499Z,37.70
2023-05-03T08:48:18.447Z,37.42
2023-05-03T08:50:45.043Z,36.28
2023-05-03T08:53:12.170Z,37.76
2023-05-03T08:55:38.951Z,37.26
2023-05-03T08:58:12.462Z,40.09
2023-05-03T09:00:39.149Z,40.39
2023-05-03T09:03:07.547Z,41.13
2023-05-03T09:05:35.766Z,41.78
2023-05-03T09:08:06.540Z,40.42
2023-05-03T09:10:34.434Z,37.51
2023-05-03T09:13:02.371Z,37.21
2023-05-03T09:15:31.888Z,37.29
2023-05-03T09:18:18.220Z,37.25
2023-05-03T09:20:56.028Z,36.68
2023-05-03T09:23:26.686Z,36.98
2023-05-03T09:25:53.342Z,37.24
2023-05-03T09:28:20.874Z,36.71
2023-05-03T09:30:48.361Z,36.97
2023-05-03T09:33:22.149Z,35.34
2023-05-03T09:36:03.376Z,35.34
2023-05-03T09:38:32.385Z,36.36
2023-05-03T09:40:59.135Z,36.13
2023-05-03T09:43:25.779Z,36.67
2023-05-03T09:45:52.459Z,34.19
2023-05-03T09:48:23.476Z,34.01
2023-05-03T09:50:50.988Z,33.77
2023-05-03T09:53:18.984Z,35.09
2023-05-03T09:55:46.994Z,36.08
2023-05-03T09:58:13.851Z,36.20
2023-05-03T10:00:42.659Z,35.50
2023-05-03T10:03:15.396Z,36.10
2023-05-03T10:05:49.066Z,35.62
2023-05-03T10:08:28.352Z,35.17
2023-05-03T10:10:55.348Z,37.68
2023-05-03T10:13:22.851Z,36.15
2023-05-03T10:15:53.805Z,36.48
2023-05-03T10:18:21.270Z,36.22
2023-05-03T10:21:01.943Z,36.97
2023-05-03T10:23:28.596Z,35.17
2023-05-03T10:26:13.335Z,34.71
2023-05-03T10:28:40.097Z,35.56
2023-05-03T10:31:06.652Z,35.66
2023-05-03T10:33:36.689Z,36.89
2023-05-03T10:36:07.584Z,37.51
2023-05-03T10:38:34.092Z,36.14
2023-05-03T10:41:03.626Z,37.69
2023-05-03T10:43:33.589Z,35.30
2023-05-03T10:46:03.647Z,35.38
2023-05-03T10:48:34.695Z,36.07
2023-05-03T10:51:29.011Z,35.15
2023-05-03T10:53:55.906Z,34.96
2023-05-03T10:56:22.752Z,34.59
2023-05-03T10:58:56.637Z,35.92
2023-05-03T11:01:24.671Z,36.30
2023-05-03T11:04:10.181Z,33.90
2023-05-03T11:06:41.371Z,33.64
2023-05-03T11:09:10.013Z,32.71
2023-05-03T11:11:39.496Z,32.43
2023-05-03T11:14:07.468Z,34.51
2023-05-03T11:16:36.560Z,34.52
2023-05-03T11:19:03.857Z,34.68
2023-05-03T11:21:31.411Z,35.56
2023-05-03T11:23:59.209Z,35.07
2023-05-03T11:26:26.698Z,34.97
2023-05-03T11:28:53.994Z,35.15
2023-05-03T11:31:21.110Z,33.89
2023-05-03T11:33:49.468Z,33.67
2023-05-03T11:36:16.283Z,32.66
2023-05-03T11:38:42.881Z,31.93
2023-05-03T11:41:13.337Z,32.25
2023-05-03T11:43:49.449Z,32.49
2023-05-03T11:46:22.202Z,32.07
2023-05-03T11:48:48.931Z,33.57
2023-05-03T11:51:16.277Z,35.48
2023-05-03T11:53:44.067Z,34.11
2023-05-03T11:56:15.264Z,34.47
2023-05-03T11:58:58.637Z,35.42
2023-05-03T12:01:26.922Z,33.93
2023-05-03T12:03:57.653Z,32.78
2023-05-03T12:06:25.858Z,32.64
2023-05-03T12:08:54.699Z,33.20
2023-05-03T12:11:23.332Z,35.29
2023-05-03T12:14:02.813Z,35.38
2023-05-03T12:16:46.706Z,36.25
2023-05-03T12:19:24.286Z,36.17
2023-05-03T12:22:04.811Z,35.05
2023-05-03T12:24:39.398Z,33.04
2023-05-03T12:27:08.666Z,33.92
2023-05-03T12:29:35.675Z,33.08
2023-05-03T12:32:03.692Z,32.52
2023-05-03T12:34:35.587Z,32.71
2023-05-03T12:37:05.651Z,33.76
2023-05-03T12:39:33.700Z,32.76
2023-05-03T12:44:35.105Z,33.11
2023-05-03T12:47:02.963Z,32.43
2023-05-03T12:49:30.182Z,31.59
2023-05-03T12:54:33.376Z,32.55
2023-05-03T12:57:08.225Z,31.90
2023-05-03T12:59:41.781Z,32.19
2023-05-03T13:04:57.075Z,32.69
2023-05-03T13:07:29.532Z,33.11
2023-05-03T13:12:27.463Z,32.89
2023-05-03T13:14:54.938Z,34.16
2023-05-03T13:17:22.823Z,33.42
2023-05-03T13:19:51.174Z,33.96
2023-05-03T13:22:17.986Z,34.12
2023-05-03T13:24:46.048Z,33.52
2023-05-03T13:27:12.640Z,34.11
2023-05-03T13:29:39.892Z,32.71
2023-05-03T13:32:07.057Z,32.89
2023-05-03T13:34:34.174Z,32.90
2023-05-03T13:37:01.789Z,32.23
2023-05-03T13:39:28.472Z,32.38
2023-05-03T13:41:54.934Z,32.73
2023-05-03T13:44:25.159Z,31.52
2023-05-03T13:46:56.300Z,31.54
2023-05-03T13:49:22.783Z,30.85
2023-05-03T13:51:49.528Z,30.04
2023-05-03T13:54:16.230Z,30.04
2023-05-03T13:56:43.079Z,29.67
2023-05-03T13:59:11.928Z,30.41
2023-05-03T14:01:38.788Z,29.59
2023-05-03T14:04:05.749Z,29.90
2023-05-03T14:06:33.546Z,29.44
2023-05-03T14:09:01.619Z,28.22
2023-05-03T14:11:28.639Z,28.22
2023-05-03T14:13:57.326Z,28.57
2023-05-03T14:16:36.432Z,29.01
2023-05-03T14:19:07.910Z,30.29
2023-05-03T14:21:34.718Z,28.45
2023-05-03T14:24:01.720Z,28.93
2023-05-03T14:26:29.564Z,28.66
2023-05-03T14:28:56.337Z,29.76
2023-05-03T14:31:22.983Z,28.90
2023-05-03T14:33:49.545Z,29.24
2023-05-03T14:36:16.223Z,28.53
2023-05-03T14:38:42.696Z,28.05
2023-05-03T14:41:09.431Z,27.21
2023-05-03T14:43:36.112Z,27.88
2023-05-03T14:46:02.689Z,28.84
2023-05-03T14:48:29.222Z,28.47
2023-05-03T14:50:56.446Z,28.71
2023-05-03T14:53:23.431Z,29.40
2023-05-03T14:55:50.206Z,30.03
2023-05-03T14:58:17.107Z,29.32
2023-05-03T15:00:43.859Z,29.66
2023-05-03T15:03:12.305Z,29.98
2023-05-03T15:05:45.822Z,29.44
2023-05-03T15:08:15.359Z,27.81
2023-05-03T15:10:44.369Z,28.88
2023-05-03T15:13:11.979Z,28.37
2023-05-03T15:15:39.806Z,28.73
2023-05-03T15:18:07.995Z,28.93
2023-05-03T15:20:35.085Z,27.91
2023-05-03T15:23:03.220Z,28.47
2023-05-03T15:25:30.040Z,27.96
2023-05-03T15:27:56.724Z,28.58
2023-05-03T15:30:23.354Z,27.98
2023-05-03T15:32:51.276Z,28.67
2023-05-03T15:35:18.223Z,28.02
2023-05-03T15:37:45.149Z,29.19
2023-05-03T15:40:13.287Z,30.41
2023-05-03T15:42:39.941Z,30.36
2023-05-03T15:45:08.699Z,30.22
2023-05-03T15:47:35.677Z,30.73
2023-05-03T15:50:02.979Z,31.28
2023-05-03T15:52:29.936Z,31.04
2023-05-03T15:54:56.534Z,31.11
2023-05-03T15:57:23.645Z,30.96
2023-05-03T15:59:50.337Z,30.42
2023-05-03T16:02:17.033Z,29.69
2023-05-03T16:04:43.582Z,29.00
2023-05-03T16:07:10.133Z,29.17
2023-05-03T16:09:36.733Z,28.89
2023-05-03T16:12:03.695Z,28.77
2023-05-03T16:14:30.534Z,29.68
2023-05-03T16:16:57.230Z,29.61
2023-05-03T16:19:23.951Z,29.13
2023-05-03T16:21:50.664Z,29.19
2023-05-03T16:24:18.576Z,29.69
2023-05-03T16:26:45.386Z,29.30
2023-05-03T16:29:11.941Z,28.89
2023-05-03T16:31:38.451Z,29.20
2023-05-03T16:34:05.122Z,29.12
2023-05-03T16:36:33.125Z,29.28
2023-05-03T16:38:59.735Z,29.34
2023-05-03T16:41:26.460Z,29.61
2023-05-03T16:43:52.968Z,29.31
2023-05-03T16:46:20.221Z,29.51
2023-05-03T16:48:48.132Z,29.29
2023-05-03T16:51:14.812Z,28.75
2023-05-03T16:53:41.521Z,29.34
2023-05-03T16:56:08.193Z,29.34
2023-05-03T16:58:34.904Z,29.78
2023-05-03T17:01:01.491Z,29.31
2023-05-03T17:03:28.261Z,29.73
2023-05-03T17:05:54.979Z,29.82
2023-05-03T17:08:21.751Z,29.92
2023-05-03T17:10:48.475Z,30.59
2023-05-03T17:13:16.546Z,30.48
2023-05-03T17:15:43.320Z,30.44
2023-05-03T17:18:10.122Z,30.45
2023-05-03T17:20:37.084Z,30.53
2023-05-03T17:23:03.629Z,30.71
2023-05-03T17:25:30.186Z,31.15
2023-05-03T17:27:57.117Z,31.46
2023-05-03T17:30:23.653Z,31.84
2023-05-03T17:32:50.238Z,31.95
2023-05-03T17:35:17.099Z,33.05
2023-05-03T17:37:44.883Z,33.34
2023-05-03T17:40:12.245Z,32.79
2023-05-03T17:42:39.124Z,33.28
2023-05-03T17:45:06.635Z,33.15
2023-05-03T17:47:33.154Z,33.11
2023-05-03T17:49:59.792Z,33.79
2023-05-03T17:52:26.356Z,34.33
2023-05-03T17:54:53.010Z,35.23
2023-05-03T17:57:22.120Z,35.54
2023-05-03T17:59:48.707Z,34.99
2023-05-03T18:02:15.319Z,35.55
2023-05-03T18:04:41.892Z,36.24
2023-05-03T18:07:08.410Z,35.70
2023-05-03T18:09:34.971Z,36.61
2023-05-03T18:12:02.003Z,36.75
2023-05-03T18:14:28.531Z,37.36
2023-05-03T18:16:55.447Z,38.07
2023-05-03T18:19:22.696Z,38.08
2023-05-03T18:21:49.237Z,39.51
2023-05-03T18:24:16.301Z,39.91
2023-05-03T18:26:43.094Z,40.51
2023-05-03T18:29:10.008Z,41.56
2023-05-03T18:31:36.744Z,42.04
2023-05-03T18:34:03.650Z,42.49
2023-05-03T18:36:31.215Z,42.83
2023-05-03T18:38:57.738Z,42.19
2023-05-03T18:41:24.523Z,42.29
2023-05-03T18:43:52.006Z,43.11
2023-05-03T18:46:19.320Z,43.65
2023-05-03T18:48:47.552Z,43.60
2023-05-03T18:51:14.312Z,42.96
2023-05-03T18:53:40.882Z,43.00
2023-05-03T18:56:07.702Z,44.52
2023-05-03T18:58:34.224Z,45.74
2023-05-03T19:01:00.999Z,45.40
2023-05-03T19:03:29.512Z,46.05
2023-05-03T19:06:00.061Z,47.29
2023-05-03T19:08:26.629Z,48.41
2023-05-03T19:10:53.365Z,49.04
2023-05-03T19:13:19.938Z,49.02
2023-05-03T19:15:47.014Z,49.37
2023-05-03T19:18:16.017Z,49.94
2023-05-03T19:20:43.669Z,50.27
2023-05-03T19:23:10.216Z,50.14
2023-05-03T19:25:36.956Z,50.21
2023-05-03T19:28:05.235Z,49.59
2023-05-03T19:30:31.849Z,49.83
2023-05-03T19:32:58.658Z,50.36
2023-05-03T19:35:25.274Z,50.13
2023-05-03T19:37:51.880Z,49.96
2023-05-03T19:40:18.690Z,50.68
2023-05-03T19:42:45.470Z,50.50
2023-05-03T19:45:12.364Z,50.38
2023-05-03T19:47:39.200Z,50.13
2023-05-03T19:50:06.736Z,49.94
2023-05-03T19:52:33.382Z,49.66
2023-05-03T19:55:00.169Z,48.90
2023-05-03T19:57:26.872Z,49.14
2023-05-03T19:59:53.456Z,49.70
2023-05-03T20:02:22.520Z,50.26
2023-05-03T20:04:50.617Z,50.65
2023-05-03T20:07:17.077Z,50.54
2023-05-03T20:09:43.652Z,50.64
2023-05-03T20:12:10.956Z,50.69
2023-05-03T20:14:38.252Z,50.86
2023-05-03T20:17:06.101Z,51.10
2023-05-03T20:19:32.574Z,51.35
2023-05-03T20:21:59.019Z,55.14
2023-05-03T20:24:25.670Z,54.61
2023-05-03T20:26:53.198Z,53.83
2023-05-03T20:29:19.757Z,54.18
2023-05-03T20:31:48.415Z,55.89
2023-05-03T20:34:15.153Z,56.37
2023-05-03T20:36:41.707Z,56.56
2023-05-03T20:39:09.604Z,57.17
2023-05-03T20:41:36.098Z,56.46
2023-05-03T20:44:02.576Z,56.30
2023-05-03T20:46:29.251Z,55.97
2023-05-03T20:48:56.048Z,56.15
2023-05-03T20:51:23.204Z,56.13
2023-05-03T20:53:49.982Z,56.79
2023-05-03T20:56:16.646Z,58.57
2023-05-03T20:58:43.272Z,58.90
2023-05-03T21:01:10.266Z,58.77
2023-05-03T21:03:37.026Z,58.45
2023-05-03T21:06:05.623Z,58.37
2023-05-03T21:08:32.839Z,57.38
2023-05-03T21:10:59.549Z,57.09
2023-05-03T21:13:26.113Z,57.02
2023-05-03T21:15:52.624Z,56.95
2023-05-03T21:18:19.454Z,57.65
2023-05-03T21:20:46.607Z,57.55
2023-05-03T21:23:13.362Z,57.80
2023-05-03T21:25:39.856Z,57.92
2023-05-03T21:28:06.308Z,58.01
2023-05-03T21:30:32.972Z,58.19
2023-05-03T21:32:59.441Z,58.18
2023-05-03T21:35:25.974Z,57.92
2023-05-03T21:37:52.524Z,57.91
2023-05-03T21:40:21.331Z,56.91
2023-05-03T21:42:49.969Z,56.38
2023-05-03T21:45:16.812Z,56.33
2023-05-03T21:47:43.358Z,56.66
2023-05-03T21:50:10.017Z,56.81
2023-05-03T21:52:36.896Z,57.86
2023-05-03T21:55:03.908Z,58.27
2023-05-03T21:57:32.489Z,58.35
2023-05-03T21:59:59.781Z,58.23
2023-05-03T22:02:26.356Z,58.12
2023-05-03T22:04:52.972Z,58.18
2023-05-03T22:07:19.649Z,58.08
2023-05-03T22:09:48.917Z,57.77
2023-05-03T22:14:45.825Z,58.97
2023-05-03T22:17:12.347Z,59.53
2023-05-03T22:19:38.882Z,59.39
2023-05-03T22:22:05.474Z,59.80
2023-05-03T22:24:31.984Z,59.51
2023-05-03T22:26:59.179Z,59.24
2023-05-03T22:29:26.438Z,59.37
2023-05-03T22:31:53.087Z,58.73
2023-05-03T22:34:19.602Z,58.92
2023-05-03T22:36:46.166Z,58.78
2023-05-03T22:39:12.638Z,58.51
2023-05-03T22:41:39.118Z,57.68
2023-05-03T22:44:05.742Z,58.25
2023-05-03T22:46:32.196Z,58.78
2023-05-03T22:48:58.704Z,59.54
2023-05-03T22:51:25.373Z,59.92
2023-05-03T22:53:51.903Z,60.39
2023-05-03T22:56:18.437Z,60.71
2023-05-03T22:58:46.808Z,60.68
2023-05-03T23:01:13.634Z,60.83
2023-05-03T23:03:41.124Z,61.22
2023-05-03T23:06:07.967Z,60.83
2023-05-03T23:08:34.523Z,60.46
2023-05-03T23:11:00.978Z,60.81
2023-05-03T23:13:27.467Z,61.57
2023-05-03T23:15:54.845Z,61.59
2023-05-03T23:18:21.489Z,61.49
2023-05-03T23:20:48.726Z,62.07
2023-05-03T23:23:16.193Z,61.83
2023-05-03T23:25:42.930Z,61.36
2023-05-03T23:28:09.670Z,61.83
2023-05-03T23:30:36.999Z,61.56
2023-05-03T23:33:04.206Z,62.14
2023-05-03T23:35:31.106Z,62.27
2023-05-03T23:37:57.702Z,62.64
2023-05-03T23:40:24.311Z,62.81
2023-05-03T23:42:51.061Z,63.05
2023-05-03T23:45:17.568Z,63.08
2023-05-03T23:47:44.129Z,63.53
2023-05-03T23:50:10.904Z,63.93
2023-05-03T23:52:37.387Z,63.94
2023-05-03T23:55:05.076Z,63.87
2023-05-03T23:57:31.535Z,64.28
2023-05-03T23:59:58.066Z,65.62
